Time;durP1;ratioP1;P1;durP2;ratioP2;P2;SDS_P1;SDS_P2;PMS_P1;PMS_P2;Temp;Humidity;BMP_temperature;BMP_pressure;BME280_temperature;BME280_humidity;BME280_pressure;Samples;Min_cycle;Max_cycle;Signal;HPM_P1;HPM_P2
2021/09/13 00:00:12;;;;;;;;;;;23.20;49.00;;;;;;4344532;32;20047;-45
2021/09/13 00:02:38;;;;;;;;;;;23.20;49.10;;;;;;4358290;32;20473;-48
2021/09/13 00:05:05;;;;;;;;;;;23.20;49.20;;;;;;4358351;32;20547;-46
2021/09/13 00:07:31;;;;;;;;;;;23.30;49.40;;;;;;4358385;32;20051;-49
2021/09/13 00:09:57;;;;;;;;;;;23.40;49.50;;;;;;4358153;32;19969;-45
2021/09/13 00:12:23;;;;;;;;;;;23.40;49.50;;;;;;4344306;32;20415;-45
2021/09/13 00:14:49;;;;;;;;;;;23.50;49.40;;;;;;4344433;32;20057;-45
2021/09/13 00:17:16;;;;;;;;;;;23.60;49.40;;;;;;4358694;32;19971;-44
2021/09/13 00:19:42;;;;;;;;;;;23.70;49.30;;;;;;4358153;32;19962;-46
2021/09/13 00:22:08;;;;;;;;;;;23.80;49.10;;;;;;4361616;32;20034;-46
2021/09/13 00:24:34;;;;;;;;;;;23.80;49.00;;;;;;4360907;32;20051;-46
2021/09/13 00:27:00;;;;;;;;;;;23.90;48.80;;;;;;4361246;32;19977;-47
2021/09/13 00:29:26;;;;;;;;;;;23.90;48.80;;;;;;4361280;32;20392;-45
2021/09/13 00:31:52;;;;;;;;;;;23.90;48.70;;;;;;4361159;32;19965;-47
2021/09/13 00:34:18;;;;;;;;;;;23.90;48.60;;;;;;4361335;32;19994;-48
2021/09/13 00:36:45;;;;;;;;;;;23.90;48.70;;;;;;4360884;32;19994;-45
2021/09/13 00:39:11;;;;;;;;;;;23.90;48.70;;;;;;4361110;32;20050;-46
2021/09/13 00:41:37;;;;;;;;;;;23.90;48.80;;;;;;4359471;32;19978;-45
2021/09/13 00:44:03;;;;;;;;;;;23.90;48.70;;;;;;4332425;33;19966;-44
2021/09/13 00:46:29;;;;;;;;;;;23.90;48.80;;;;;;4346058;33;20151;-45
2021/09/13 00:48:55;;;;;;;;;;;23.90;48.80;;;;;;4346227;33;19973;-48
2021/09/13 00:51:22;;;;;;;;;;;23.80;48.60;;;;;;4346313;33;19981;-46
2021/09/13 00:53:48;;;;;;;;;;;23.80;48.60;;;;;;4346000;33;19978;-45
2021/09/13 00:56:14;;;;;;;;;;;23.80;48.60;;;;;;4346353;33;19989;-45
2021/09/13 00:58:40;;;;;;;;;;;23.80;48.60;;;;;;4346032;33;20120;-44
2021/09/13 01:01:06;;;;;;;;;;;23.80;48.60;;;;;;4332111;33;20360;-44
2021/09/13 01:03:33;;;;;;;;;;;23.80;48.60;;;;;;4345983;33;20165;-44
2021/09/13 01:05:59;;;;;;;;;;;23.80;48.40;;;;;;4346099;33;19985;-46
2021/09/13 01:08:25;;;;;;;;;;;23.70;48.40;;;;;;4346402;33;19974;-47
2021/09/13 01:10:52;;;;;;;;;;;23.70;48.50;;;;;;4332358;33;19978;-44
2021/09/13 01:13:18;;;;;;;;;;;23.60;48.70;;;;;;4332155;33;19971;-45
2021/09/13 01:15:44;;;;;;;;;;;23.60;48.70;;;;;;4344466;33;19974;-45
2021/09/13 01:18:11;;;;;;;;;;;23.50;48.60;;;;;;4344714;33;20378;-44
2021/09/13 01:20:37;;;;;;;;;;;23.50;48.60;;;;;;4344656;33;20004;-44
2021/09/13 01:23:08;;;;;;;;;;;23.40;48.60;;;;;;4345049;33;19986;-45
2021/09/13 01:25:34;;;;;;;;;;;23.40;48.60;;;;;;4344863;33;19978;-45
2021/09/13 01:28:00;;;;;;;;;;;23.40;48.80;;;;;;4344891;33;20052;-50
2021/09/13 01:30:27;;;;;;;;;;;23.30;48.80;;;;;;4344456;33;20115;-47
2021/09/13 01:32:53;;;;;;;;;;;23.20;48.90;;;;;;4331071;33;19967;-46
2021/09/13 01:35:19;;;;;;;;;;;23.20;49.00;;;;;;4344564;33;19970;-45
2021/09/13 01:37:45;;;;;;;;;;;23.20;49.00;;;;;;4344386;33;20472;-45
2021/09/13 01:40:11;;;;;;;;;;;23.20;49.20;;;;;;4344588;33;19977;-49
2021/09/13 01:42:38;;;;;;;;;;;23.10;49.30;;;;;;4352610;32;19969;-46
2021/09/13 01:45:04;;;;;;;;;;;23.10;49.50;;;;;;4359594;32;20407;-47
2021/09/13 01:47:31;;;;;;;;;;;23.10;49.50;;;;;;4359538;32;19979;-46
2021/09/13 01:49:57;;;;;;;;;;;23.00;49.70;;;;;;4333267;32;19994;-50
2021/09/13 01:52:23;;;;;;;;;;;23.00;49.90;;;;;;4358969;32;20063;-50
2021/09/13 01:54:49;;;;;;;;;;;23.00;50.00;;;;;;4359108;32;19982;-50
2021/09/13 01:57:15;;;;;;;;;;;23.00;49.90;;;;;;4359474;32;20043;-47
2021/09/13 01:59:42;;;;;;;;;;;23.00;50.00;;;;;;4359079;32;19989;-47
2021/09/13 02:02:08;;;;;;;;;;;23.00;50.00;;;;;;4345202;32;19986;-49
2021/09/13 02:04:34;;;;;;;;;;;23.00;50.20;;;;;;4359366;32;20414;-46
2021/09/13 02:07:00;;;;;;;;;;;23.00;50.00;;;;;;4345717;32;19970;-48
2021/09/13 02:09:27;;;;;;;;;;;22.90;50.10;;;;;;4359418;32;19985;-45
2021/09/13 02:11:53;;;;;;;;;;;22.90;50.30;;;;;;4359011;32;20440;-45
2021/09/13 02:14:19;;;;;;;;;;;22.80;50.20;;;;;;4358918;32;19977;-48
2021/09/13 02:16:45;;;;;;;;;;;22.80;50.40;;;;;;4359475;32;20355;-45
2021/09/13 02:19:11;;;;;;;;;;;22.80;50.50;;;;;;4359868;32;20132;-46
2021/09/13 02:21:37;;;;;;;;;;;22.70;50.50;;;;;;4359218;32;20397;-48
2021/09/13 02:24:04;;;;;;;;;;;22.70;50.60;;;;;;4359646;32;20050;-46
2021/09/13 02:26:30;;;;;;;;;;;22.80;50.70;;;;;;4345895;32;19977;-41
2021/09/13 02:28:56;;;;;;;;;;;22.70;50.80;;;;;;4359917;32;19969;-46
2021/09/13 02:31:23;;;;;;;;;;;22.70;50.90;;;;;;4359301;32;19955;-46
2021/09/13 02:33:49;;;;;;;;;;;22.70;50.90;;;;;;4359751;32;20595;-49
2021/09/13 02:36:15;;;;;;;;;;;22.70;51.00;;;;;;4359607;32;19986;-48
2021/09/13 02:38:41;;;;;;;;;;;22.70;51.10;;;;;;4359672;32;19977;-45
2021/09/13 02:41:07;;;;;;;;;;;22.70;50.90;;;;;;4359481;32;19966;-46
2021/09/13 02:43:33;;;;;;;;;;;22.70;51.00;;;;;;4344489;32;19991;-48
2021/09/13 02:46:00;;;;;;;;;;;22.70;51.00;;;;;;4344930;33;19999;-49
2021/09/13 02:48:26;;;;;;;;;;;22.70;51.00;;;;;;4344640;33;19974;-47
2021/09/13 02:50:52;;;;;;;;;;;22.70;51.10;;;;;;4344224;33;20438;-47
2021/09/13 02:53:18;;;;;;;;;;;22.60;51.10;;;;;;4344678;33;19963;-47
2021/09/13 02:55:44;;;;;;;;;;;22.60;51.10;;;;;;4343963;33;20389;-47
2021/09/13 02:58:11;;;;;;;;;;;22.70;51.10;;;;;;4344473;33;20006;-48
2021/09/13 03:00:37;;;;;;;;;;;22.70;51.10;;;;;;4344600;33;20458;-48
2021/09/13 03:03:03;;;;;;;;;;;22.70;51.10;;;;;;4344138;33;20002;-49
2021/09/13 03:05:29;;;;;;;;;;;22.70;51.10;;;;;;4344506;33;20113;-45
2021/09/13 03:07:55;;;;;;;;;;;22.70;51.00;;;;;;4343935;33;20002;-46
2021/09/13 03:10:22;;;;;;;;;;;22.70;50.80;;;;;;4344066;33;19981;-45
2021/09/13 03:12:48;;;;;;;;;;;22.70;50.80;;;;;;4343844;33;19971;-47
2021/09/13 03:15:14;;;;;;;;;;;22.70;50.80;;;;;;4343909;33;19986;-50
2021/09/13 03:17:40;;;;;;;;;;;22.70;50.80;;;;;;4344070;33;19983;-47
2021/09/13 03:20:07;;;;;;;;;;;22.70;50.80;;;;;;4343851;33;20099;-48
2021/09/13 03:22:34;;;;;;;;;;;22.70;50.70;;;;;;4343650;33;20504;-44
2021/09/13 03:25:00;;;;;;;;;;;22.70;50.80;;;;;;4344190;33;20052;-47
2021/09/13 03:27:26;;;;;;;;;;;22.70;50.70;;;;;;4343962;33;20160;-47
2021/09/13 03:29:52;;;;;;;;;;;22.70;50.70;;;;;;4343581;33;19970;-46
2021/09/13 03:32:18;;;;;;;;;;;22.80;50.80;;;;;;4343503;33;20411;-47
2021/09/13 03:34:45;;;;;;;;;;;22.80;50.90;;;;;;4343766;33;19994;-46
2021/09/13 03:37:11;;;;;;;;;;;22.90;50.80;;;;;;4343501;33;19974;-46
2021/09/13 03:39:37;;;;;;;;;;;23.00;50.80;;;;;;4343606;33;20042;-46
2021/09/13 03:42:04;;;;;;;;;;;23.10;50.80;;;;;;4347739;32;20397;-47
2021/09/13 03:44:31;;;;;;;;;;;23.30;50.70;;;;;;4358491;32;20481;-48
2021/09/13 03:46:57;;;;;;;;;;;23.40;50.50;;;;;;4357929;32;19970;-45
2021/09/13 03:49:23;;;;;;;;;;;23.60;50.30;;;;;;4358381;32;19998;-46
2021/09/13 03:51:49;;;;;;;;;;;23.70;50.10;;;;;;4358520;32;19982;-46
2021/09/13 03:54:15;;;;;;;;;;;23.90;49.90;;;;;;4358428;32;20402;-46
2021/09/13 03:56:41;;;;;;;;;;;24.10;49.70;;;;;;4358585;32;19959;-47
2021/09/13 03:59:08;;;;;;;;;;;24.20;49.50;;;;;;4358146;32;19969;-46
2021/09/13 04:01:34;;;;;;;;;;;24.40;49.20;;;;;;4344924;32;19971;-46
2021/09/13 04:04:02;;;;;;;;;;;24.60;48.90;;;;;;4358185;32;20489;-46
2021/09/13 04:06:41;;;;;;;;;;;24.70;48.40;;;;;;4358480;32;19961;-48
2021/09/13 04:11:55;;;;;;;;;;;24.80;47.80;;;;;;4358129;32;19959;-45
2021/09/13 04:14:25;;;;;;;;;;;24.90;47.80;;;;;;4358506;32;19974;-45
2021/09/13 04:16:52;;;;;;;;;;;25.00;47.80;;;;;;4358027;32;20037;-44
2021/09/13 04:19:18;;;;;;;;;;;25.30;47.60;;;;;;4358274;32;20480;-44
2021/09/13 04:21:45;;;;;;;;;;;25.40;47.10;;;;;;4358709;32;20034;-44
2021/09/13 04:24:11;;;;;;;;;;;25.60;46.40;;;;;;4358433;32;19974;-43
2021/09/13 04:26:37;;;;;;;;;;;25.80;46.00;;;;;;4358569;32;19974;-43
2021/09/13 04:29:03;;;;;;;;;;;26.10;46.00;;;;;;4358503;32;19990;-42
2021/09/13 04:31:30;;;;;;;;;;;26.30;45.00;;;;;;4357906;32;19978;-43
2021/09/13 04:33:56;;;;;;;;;;;26.50;44.50;;;;;;4358056;32;20032;-44
2021/09/13 04:36:22;;;;;;;;;;;26.70;44.30;;;;;;4358046;32;20020;-44
2021/09/13 04:38:48;;;;;;;;;;;26.80;44.10;;;;;;4358068;32;20384;-43
2021/09/13 04:41:15;;;;;;;;;;;27.00;44.20;;;;;;4357796;32;20055;-43
2021/09/13 04:43:41;;;;;;;;;;;27.20;44.20;;;;;;4343606;32;19982;-42
2021/09/13 04:46:07;;;;;;;;;;;27.40;43.90;;;;;;4343541;33;20044;-42
2021/09/13 04:48:33;;;;;;;;;;;27.60;43.60;;;;;;4329540;33;20004;-43
2021/09/13 04:50:59;;;;;;;;;;;27.90;43.30;;;;;;4342835;33;20432;-42
2021/09/13 04:53:26;;;;;;;;;;;28.10;43.00;;;;;;4343287;33;20041;-44
2021/09/13 04:55:52;;;;;;;;;;;28.40;42.70;;;;;;4342834;33;19959;-42
2021/09/13 04:58:18;;;;;;;;;;;28.50;42.10;;;;;;4342880;33;19967;-42
2021/09/13 05:00:44;;;;;;;;;;;28.80;41.90;;;;;;4343125;33;20474;-44
2021/09/13 05:03:10;;;;;;;;;;;29.00;41.40;;;;;;4343178;33;19962;-43
2021/09/13 05:05:37;;;;;;;;;;;29.20;41.10;;;;;;4343414;32;20045;-42
2021/09/13 05:08:03;;;;;;;;;;;29.40;40.80;;;;;;4345518;33;20046;-42
2021/09/13 05:10:29;;;;;;;;;;;29.60;40.60;;;;;;4345565;33;20008;-42
2021/09/13 05:12:55;;;;;;;;;;;29.80;40.20;;;;;;4345581;33;19974;-42
2021/09/13 05:15:22;;;;;;;;;;;30.00;39.80;;;;;;4345563;33;20136;-43
2021/09/13 05:17:48;;;;;;;;;;;30.10;39.40;;;;;;4345818;33;20052;-42
2021/09/13 05:20:15;;;;;;;;;;;30.20;39.30;;;;;;4345827;33;20068;-42
2021/09/13 05:22:41;;;;;;;;;;;30.30;39.30;;;;;;4346009;33;20122;-42
2021/09/13 05:25:08;;;;;;;;;;;30.30;39.00;;;;;;4345535;33;19992;-42
2021/09/13 05:27:34;;;;;;;;;;;30.30;38.90;;;;;;4345456;33;19982;-42
2021/09/13 05:30:00;;;;;;;;;;;30.30;39.00;;;;;;4345316;33;20452;-42
2021/09/13 05:32:27;;;;;;;;;;;30.30;38.40;;;;;;4345217;33;20402;-42
2021/09/13 05:34:54;;;;;;;;;;;30.00;37.70;;;;;;4345375;33;20445;-43
2021/09/13 05:37:20;;;;;;;;;;;29.80;37.10;;;;;;4345004;33;20048;-43
2021/09/13 05:39:46;;;;;;;;;;;29.40;37.20;;;;;;4345261;33;20000;-42
2021/09/13 05:42:12;;;;;;;;;;;29.10;37.80;;;;;;4350683;32;20050;-42
2021/09/13 05:44:39;;;;;;;;;;;28.90;38.30;;;;;;4360167;32;20398;-43
2021/09/13 05:47:06;;;;;;;;;;;28.70;38.60;;;;;;4346187;32;19977;-43
2021/09/13 05:49:32;;;;;;;;;;;28.60;38.90;;;;;;4360013;32;19994;-43
2021/09/13 05:51:58;;;;;;;;;;;28.50;39.10;;;;;;4359802;32;19969;-43
2021/09/13 05:54:25;;;;;;;;;;;28.60;39.40;;;;;;4359708;32;19986;-42
2021/09/13 05:56:53;;;;;;;;;;;28.70;39.30;;;;;;4359767;32;20009;-42
2021/09/13 05:59:22;;;;;;;;;;;28.80;39.10;;;;;;4359804;32;20066;-43
2021/09/13 06:01:48;;;;;;;;;;;28.70;39.10;;;;;;4345881;32;20022;-43
2021/09/13 06:04:15;;;;;;;;;;;28.70;39.10;;;;;;4346029;32;20441;-42
2021/09/13 06:06:42;;;;;;;;;;;28.60;39.00;;;;;;4359890;32;20407;-43
2021/09/13 06:09:09;;;;;;;;;;;28.40;39.10;;;;;;4360208;32;19978;-43
2021/09/13 06:11:35;;;;;;;;;;;28.30;39.40;;;;;;4359962;32;19967;-42
2021/09/13 06:14:02;;;;;;;;;;;28.20;39.50;;;;;;4359298;32;19997;-42
2021/09/13 06:16:28;;;;;;;;;;;28.20;39.80;;;;;;4345536;32;19978;-44
2021/09/13 06:18:54;;;;;;;;;;;28.30;40.10;;;;;;4358785;32;19971;-42
2021/09/13 06:21:20;;;;;;;;;;;28.30;40.10;;;;;;4359923;32;19964;-43
2021/09/13 06:23:46;;;;;;;;;;;28.30;40.30;;;;;;4359703;32;19974;-42
2021/09/13 06:26:13;;;;;;;;;;;28.30;40.50;;;;;;4359428;32;19970;-42
2021/09/13 06:28:39;;;;;;;;;;;28.30;40.40;;;;;;4359864;32;19970;-42
2021/09/13 06:31:06;;;;;;;;;;;28.30;40.40;;;;;;4359330;32;19980;-43
2021/09/13 06:33:33;;;;;;;;;;;28.30;40.30;;;;;;4359603;32;20425;-42
2021/09/13 06:35:59;;;;;;;;;;;28.50;40.30;;;;;;4359256;32;20398;-41
2021/09/13 06:38:26;;;;;;;;;;;28.70;40.20;;;;;;4359487;32;19993;-42
2021/09/13 06:40:52;;;;;;;;;;;28.90;40.10;;;;;;4359264;32;20000;-43
2021/09/13 06:43:19;;;;;;;;;;;29.10;40.00;;;;;;4347282;32;19974;-42
2021/09/13 06:45:46;;;;;;;;;;;29.20;39.80;;;;;;4344465;33;20427;-42
2021/09/13 06:48:16;;;;;;;;;;;29.20;39.50;;;;;;4344339;33;20021;-43
2021/09/13 06:50:43;;;;;;;;;;;29.10;39.40;;;;;;4330940;33;20433;-42
2021/09/13 06:53:09;;;;;;;;;;;29.10;39.50;;;;;;4346811;32;19966;-43
2021/09/13 06:55:37;;;;;;;;;;;29.10;39.60;;;;;;4348553;32;20446;-43
2021/09/13 06:58:07;;;;;;;;;;;28.90;39.60;;;;;;4359133;32;20045;-42
2021/09/13 07:00:34;;;;;;;;;;;28.90;39.80;;;;;;4349358;32;19966;-42
2021/09/13 07:03:01;;;;;;;;;;;28.90;39.90;;;;;;4311698;33;20084;-42
2021/09/13 07:05:27;;;;;;;;;;;28.90;39.80;;;;;;4312146;33;20082;-43
2021/09/13 07:07:54;;;;;;;;;;;28.90;39.60;;;;;;4312411;33;19971;-43
2021/09/13 07:10:20;;;;;;;;;;;28.80;39.60;;;;;;4312290;33;19979;-42
2021/09/13 07:12:47;;;;;;;;;;;28.80;39.70;;;;;;4306868;33;20004;-42
2021/09/13 07:15:15;;;;;;;;;;;28.80;39.70;;;;;;4312131;33;19963;-42
2021/09/13 07:17:42;;;;;;;;;;;28.80;39.90;;;;;;4312193;33;20082;-42
2021/09/13 07:20:09;;;;;;;;;;;28.80;40.10;;;;;;4312022;33;19983;-42
2021/09/13 07:22:35;;;;;;;;;;;28.80;40.20;;;;;;4299636;33;20554;-42
2021/09/13 07:25:02;;;;;;;;;;;28.70;40.20;;;;;;4311972;33;19991;-43
2021/09/13 07:27:28;;;;;;;;;;;28.70;40.20;;;;;;4311748;33;19989;-42
2021/09/13 07:29:59;;;;;;;;;;;28.70;40.40;;;;;;4311624;33;19971;-43
2021/09/13 07:32:26;;;;;;;;;;;28.70;40.50;;;;;;4311612;33;20411;-42
2021/09/13 07:34:52;;;;;;;;;;;28.70;40.40;;;;;;4312098;33;20002;-44
2021/09/13 07:37:18;;;;;;;;;;;28.70;40.30;;;;;;4312045;33;19975;-42
2021/09/13 07:39:44;;;;;;;;;;;28.60;40.40;;;;;;4317926;33;19963;-44
2021/09/13 07:42:11;;;;;;;;;;;28.60;40.50;;;;;;4341278;33;20043;-43
2021/09/13 07:44:37;;;;;;;;;;;28.60;40.50;;;;;;4355553;32;19976;-42
2021/09/13 07:47:04;;;;;;;;;;;28.60;40.50;;;;;;4358391;32;19981;-42
2021/09/13 07:49:30;;;;;;;;;;;28.70;40.60;;;;;;4346944;32;20419;-43
2021/09/13 07:51:56;;;;;;;;;;;28.70;40.50;;;;;;4329156;33;19973;-42
2021/09/13 07:54:22;;;;;;;;;;;28.80;41.30;;;;;;4343408;33;19970;-42
2021/09/13 07:56:49;;;;;;;;;;;28.90;40.60;;;;;;4343433;33;19977;-42
2021/09/13 07:59:15;;;;;;;;;;;29.00;40.60;;;;;;4343694;33;19993;-42
2021/09/13 08:01:41;;;;;;;;;;;29.00;40.50;;;;;;4343706;33;19959;-42
2021/09/13 08:04:09;;;;;;;;;;;29.00;40.30;;;;;;4343216;33;20415;-42
2021/09/13 08:06:36;;;;;;;;;;;29.00;40.30;;;;;;4343054;33;20446;-43
2021/09/13 08:09:03;;;;;;;;;;;29.00;40.40;;;;;;4329597;33;19981;-43
2021/09/13 08:11:29;;;;;;;;;;;29.00;40.40;;;;;;4343093;33;19990;-42
2021/09/13 08:13:55;;;;;;;;;;;28.90;40.30;;;;;;4342931;33;20556;-42
2021/09/13 08:16:23;;;;;;;;;;;28.90;40.40;;;;;;4343273;33;19982;-43
2021/09/13 08:18:51;;;;;;;;;;;28.90;40.30;;;;;;4343564;33;20410;-43
2021/09/13 08:21:20;;;;;;;;;;;29.00;40.30;;;;;;4343215;33;19982;-42
2021/09/13 08:23:48;;;;;;;;;;;29.00;40.20;;;;;;4343414;33;19986;-44
2021/09/13 08:26:16;;;;;;;;;;;29.10;40.20;;;;;;4343241;33;20374;-42
2021/09/13 08:28:42;;;;;;;;;;;29.30;40.00;;;;;;4343040;33;20050;-42
2021/09/13 08:31:08;;;;;;;;;;;29.40;39.70;;;;;;4343248;33;20059;-42
2021/09/13 08:33:35;;;;;;;;;;;29.60;39.50;;;;;;4343436;33;19985;-42
2021/09/13 08:36:02;;;;;;;;;;;29.80;39.40;;;;;;4343371;33;20402;-42
2021/09/13 08:38:28;;;;;;;;;;;29.90;39.20;;;;;;4343261;33;19989;-42
2021/09/13 08:40:54;;;;;;;;;;;30.00;39.10;;;;;;4343088;32;19971;-42
2021/09/13 08:43:21;;;;;;;;;;;30.00;39.00;;;;;;4346009;33;20407;-42
2021/09/13 08:45:53;;;;;;;;;;;30.10;39.90;;;;;;4332615;33;19962;-42
2021/09/13 08:51:16;;;;;;;;;;;30.30;39.20;;;;;;4360727;32;19977;-41
2021/09/13 08:53:50;;;;;;;;;;;30.50;38.90;;;;;;4360846;32;20004;-43
2021/09/13 08:56:17;;;;;;;;;;;30.50;38.10;;;;;;4360981;32;19994;-42
2021/09/13 08:58:44;;;;;;;;;;;30.50;37.90;;;;;;4360724;32;20082;-42
2021/09/13 09:01:12;;;;;;;;;;;30.40;37.70;;;;;;4360275;32;20391;-43
2021/09/13 09:03:39;;;;;;;;;;;30.40;37.90;;;;;;4360554;32;19990;-41
2021/09/13 09:06:06;;;;;;;;;;;30.60;38.10;;;;;;4360321;32;20363;-43
2021/09/13 09:08:33;;;;;;;;;;;30.70;38.10;;;;;;4346727;32;20449;-43
2021/09/13 09:11:01;;;;;;;;;;;30.80;37.90;;;;;;4360533;32;20036;-44
2021/09/13 09:13:37;;;;;;;;;;;31.10;38.50;;;;;;4360425;32;19968;-42
2021/09/13 09:16:04;;;;;;;;;;;31.20;37.60;;;;;;4360331;32;20035;-42
2021/09/13 09:18:40;;;;;;;;;;;31.30;37.60;;;;;;4360419;32;19978;-42
2021/09/13 09:21:07;;;;;;;;;;;31.30;37.00;;;;;;4360522;32;20401;-44
2021/09/13 09:23:49;;;;;;;;;;;31.30;36.90;;;;;;4346485;32;20460;-42
2021/09/13 09:26:15;;;;;;;;;;;31.30;36.80;;;;;;4335769;32;19959;-42
2021/09/13 09:28:42;;;;;;;;;;;31.20;36.30;;;;;;4360241;32;19974;-42
2021/09/13 09:31:08;;;;;;;;;;;31.10;36.10;;;;;;4360399;32;19983;-42
2021/09/13 09:33:35;;;;;;;;;;;30.90;36.10;;;;;;4360285;32;20019;-42
2021/09/13 09:36:01;;;;;;;;;;;30.80;36.30;;;;;;4360217;32;20009;-43
2021/09/13 09:38:30;;;;;;;;;;;30.70;36.20;;;;;;4360186;32;19979;-42
2021/09/13 09:41:09;;;;;;;;;;;30.70;36.30;;;;;;4360170;32;20410;-42
2021/09/13 09:44:00;;;;;;;;;;;30.70;36.20;;;;;;4359939;32;20394;-42
2021/09/13 09:46:40;;;;;;;;;;;30.70;36.30;;;;;;4360425;32;19979;-42
2021/09/13 09:49:08;;;;;;;;;;;30.70;36.60;;;;;;4350723;32;19967;-43
2021/09/13 09:51:41;;;;;;;;;;;30.70;36.80;;;;;;4344934;33;19990;-44
2021/09/13 09:54:15;;;;;;;;;;;30.70;37.00;;;;;;4344900;33;19970;-41
2021/09/13 09:56:42;;;;;;;;;;;30.90;37.10;;;;;;4345414;33;19977;-43
2021/09/13 09:59:10;;;;;;;;;;;31.10;36.90;;;;;;4345061;33;19978;-43
2021/09/13 10:01:37;;;;;;;;;;;31.20;36.90;;;;;;4345244;33;20394;-42
2021/09/13 10:04:23;;;;;;;;;;;31.40;37.00;;;;;;4344999;33;20021;-40
2021/09/13 10:06:54;;;;;;;;;;;31.60;37.00;;;;;;4345136;33;20402;-42
2021/09/13 10:09:20;;;;;;;;;;;31.70;36.60;;;;;;4345215;33;19986;-42
2021/09/13 10:11:49;;;;;;;;;;;31.80;36.30;;;;;;4330924;33;19994;-43
2021/09/13 10:14:17;;;;;;;;;;;31.80;36.20;;;;;;4344676;33;19967;-42
2021/09/13 10:16:44;;;;;;;;;;;31.90;36.20;;;;;;4344729;33;19979;-42
2021/09/13 10:19:11;;;;;;;;;;;31.90;36.10;;;;;;4344633;33;20351;-42
2021/09/13 10:21:37;;;;;;;;;;;31.80;36.20;;;;;;4344791;33;19965;-41
2021/09/13 10:24:06;;;;;;;;;;;31.90;36.40;;;;;;4344578;33;19974;-42
2021/09/13 10:26:32;;;;;;;;;;;32.00;36.40;;;;;;4319161;33;19971;-42
2021/09/13 10:29:02;;;;;;;;;;;32.00;36.20;;;;;;4330897;33;20000;-41
2021/09/13 10:31:46;;;;;;;;;;;32.00;35.90;;;;;;4344827;33;19967;-42
2021/09/13 10:34:22;;;;;;;;;;;32.10;35.60;;;;;;4344707;33;19970;-43
2021/09/13 10:37:03;;;;;;;;;;;32.00;35.40;;;;;;4330737;33;20001;-42
2021/09/13 10:39:49;;;;;;;;;;;32.10;35.40;;;;;;4344281;33;20076;-43
2021/09/13 10:42:39;;;;;;;;;;;32.20;35.50;;;;;;4344487;33;20055;-42
2021/09/13 10:45:12;;;;;;;;;;;32.20;35.20;;;;;;4344587;33;20045;-41
2021/09/13 10:47:39;;;;;;;;;;;32.20;35.00;;;;;;4344107;32;19958;-43
2021/09/13 10:50:47;;;;;;;;;;;32.20;35.10;;;;;;4359116;32;20050;-42
2021/09/13 10:53:17;;;;;;;;;;;32.10;35.10;;;;;;4358700;32;20047;-42
2021/09/13 10:55:43;;;;;;;;;;;32.00;35.20;;;;;;4359213;32;20017;-43
2021/09/13 10:58:12;;;;;;;;;;;31.90;35.30;;;;;;4359102;32;20412;-42
2021/09/13 11:00:42;;;;;;;;;;;31.90;35.40;;;;;;4344750;32;20004;-42
2021/09/13 11:03:31;;;;;;;;;;;31.90;35.60;;;;;;4359093;32;19974;-43
2021/09/13 11:06:18;;;;;;;;;;;31.80;35.40;;;;;;4359261;32;19977;-42
2021/09/13 11:08:55;;;;;;;;;;;31.80;35.50;;;;;;4359087;32;19996;-41
2021/09/13 11:11:25;;;;;;;;;;;31.70;35.50;;;;;;4358934;32;19989;-42
2021/09/13 11:14:02;;;;;;;;;;;31.60;35.70;;;;;;4345041;32;20425;-42
2021/09/13 11:16:30;;;;;;;;;;;31.50;35.80;;;;;;4358926;32;20063;-42
2021/09/13 11:18:56;;;;;;;;;;;31.30;35.80;;;;;;4358955;32;20016;-43
2021/09/13 11:21:25;;;;;;;;;;;31.30;36.00;;;;;;4358810;32;19962;-42
2021/09/13 11:23:52;;;;;;;;;;;31.30;35.90;;;;;;4358682;32;20492;-42
2021/09/13 11:26:32;;;;;;;;;;;31.30;35.90;;;;;;4344234;32;19978;-42
2021/09/13 11:29:06;;;;;;;;;;;31.40;35.90;;;;;;4358855;32;20060;-43
2021/09/13 11:31:52;;;;;;;;;;;31.50;35.90;;;;;;4358783;32;19973;-43
2021/09/13 11:34:24;;;;;;;;;;;31.70;35.60;;;;;;4358806;32;20005;-42
2021/09/13 11:37:06;;;;;;;;;;;31.80;35.40;;;;;;4344909;32;19966;-42
2021/09/13 11:39:43;;;;;;;;;;;31.80;35.30;;;;;;4358205;32;19966;-41
2021/09/13 11:42:14;;;;;;;;;;;31.90;35.30;;;;;;4358085;32;19982;-41
2021/09/13 11:44:44;;;;;;;;;;;32.00;35.40;;;;;;4344388;32;19973;-42
2021/09/13 11:47:16;;;;;;;;;;;32.20;35.30;;;;;;4358312;32;19966;-43
2021/09/13 11:49:44;;;;;;;;;;;32.40;34.90;;;;;;4332034;33;19959;-42
2021/09/13 11:52:13;;;;;;;;;;;32.60;34.50;;;;;;4343600;33;19981;-43
2021/09/13 11:54:44;;;;;;;;;;;32.90;34.10;;;;;;4343620;33;19962;-44
2021/09/13 11:57:24;;;;;;;;;;;33.20;34.10;;;;;;4343331;33;20382;-42
2021/09/13 11:59:52;;;;;;;;;;;33.50;33.60;;;;;;4343414;33;20386;-42
2021/09/13 12:02:18;;;;;;;;;;;33.70;33.20;;;;;;4343083;33;19963;-43
2021/09/13 12:04:44;;;;;;;;;;;33.70;32.90;;;;;;4343454;33;19994;-42
2021/09/13 12:07:11;;;;;;;;;;;33.80;32.70;;;;;;4343251;33;20407;-42
2021/09/13 12:09:41;;;;;;;;;;;33.90;32.30;;;;;;4343194;33;20004;-42
2021/09/13 12:12:07;;;;;;;;;;;34.00;32.10;;;;;;4343286;33;20466;-42
2021/09/13 12:14:34;;;;;;;;;;;34.00;31.80;;;;;;4329152;33;20046;-42
2021/09/13 12:17:19;;;;;;;;;;;34.00;31.70;;;;;;4346376;33;19990;-43
2021/09/13 12:20:09;;;;;;;;;;;34.00;31.80;;;;;;4346179;33;20490;-43
2021/09/13 12:22:35;;;;;;;;;;;33.80;31.60;;;;;;4346592;33;19966;-42
2021/09/13 12:25:08;;;;;;;;;;;33.70;31.70;;;;;;4332517;33;19974;-42
2021/09/13 12:27:45;;;;;;;;;;;33.70;32.00;;;;;;4346822;33;19965;-42
2021/09/13 12:30:19;;;;;;;;;;;33.60;32.60;;;;;;4332489;33;19997;-42
2021/09/13 12:32:57;;;;;;;;;;;33.60;31.90;;;;;;4346072;33;20045;-42
2021/09/13 12:35:49;;;;;;;;;;;33.50;31.80;;;;;;4346532;33;20075;-42
2021/09/13 12:38:21;;;;;;;;;;;33.50;31.60;;;;;;4342748;33;19959;-46
2021/09/13 12:40:57;;;;;;;;;;;33.40;31.40;;;;;;4346467;33;19971;-43
2021/09/13 12:43:32;;;;;;;;;;;33.50;31.60;;;;;;4346293;33;19966;-41
2021/09/13 12:46:20;;;;;;;;;;;33.40;31.60;;;;;;4346211;33;19969;-43
2021/09/13 12:48:50;;;;;;;;;;;33.30;31.50;;;;;;4353193;32;20048;-42
2021/09/13 12:51:21;;;;;;;;;;;33.30;31.70;;;;;;4360920;32;19996;-42
2021/09/13 12:53:56;;;;;;;;;;;33.30;31.80;;;;;;4360813;32;20046;-42
2021/09/13 12:56:23;;;;;;;;;;;33.30;31.60;;;;;;4360805;32;20057;-43
2021/09/13 12:58:49;;;;;;;;;;;33.20;31.90;;;;;;4360707;32;19969;-42
2021/09/13 13:01:28;;;;;;;;;;;33.10;32.20;;;;;;4347191;32;19974;-41
2021/09/13 13:04:05;;;;;;;;;;;33.10;32.50;;;;;;4360769;32;20383;-43
2021/09/13 13:06:33;;;;;;;;;;;33.10;32.70;;;;;;4360397;32;19973;-42
2021/09/13 13:09:00;;;;;;;;;;;33.20;32.80;;;;;;4360635;32;20000;-42
2021/09/13 13:11:28;;;;;;;;;;;33.30;32.60;;;;;;4346577;32;19962;-42
2021/09/13 13:13:54;;;;;;;;;;;33.40;32.30;;;;;;4360762;32;19977;-42
2021/09/13 13:16:20;;;;;;;;;;;33.50;32.30;;;;;;4345769;33;19959;-42
2021/09/13 13:18:46;;;;;;;;;;;33.50;32.10;;;;;;4345526;33;19963;-41
2021/09/13 13:21:12;;;;;;;;;;;33.40;31.70;;;;;;4345729;32;19971;-42
2021/09/13 13:23:38;;;;;;;;;;;33.30;31.70;;;;;;4345453;33;19977;-42
2021/09/13 13:26:05;;;;;;;;;;;33.20;31.70;;;;;;4331846;33;20406;-42
2021/09/13 13:28:31;;;;;;;;;;;33.10;31.80;;;;;;4344827;32;19967;-42
2021/09/13 13:30:58;;;;;;;;;;;33.00;31.90;;;;;;4345253;32;19991;-43
2021/09/13 13:33:24;;;;;;;;;;;32.90;32.10;;;;;;4345096;33;19996;-42
2021/09/13 13:35:50;;;;;;;;;;;32.80;32.20;;;;;;4345463;33;19977;-41
2021/09/13 13:38:16;;;;;;;;;;;32.70;32.30;;;;;;4331731;33;19987;-43
2021/09/13 13:40:42;;;;;;;;;;;32.50;32.40;;;;;;4331434;33;19985;-43
2021/09/13 13:43:09;;;;;;;;;;;32.30;32.40;;;;;;4344909;33;19959;-42
2021/09/13 13:45:35;;;;;;;;;;;32.10;32.50;;;;;;4345677;33;19959;-41
2021/09/13 13:48:01;;;;;;;;;;;32.00;32.70;;;;;;4345442;33;20061;-43
2021/09/13 13:50:28;;;;;;;;;;;31.80;32.80;;;;;;4345456;33;19986;-42
2021/09/13 13:52:54;;;;;;;;;;;31.70;33.00;;;;;;4344933;33;20087;-42
2021/09/13 13:55:20;;;;;;;;;;;31.50;33.10;;;;;;4345024;33;19966;-41
2021/09/13 13:57:46;;;;;;;;;;;31.40;33.30;;;;;;4345071;33;19994;-42
2021/09/13 14:00:13;;;;;;;;;;;31.30;33.50;;;;;;4344727;33;20402;-42
2021/09/13 14:02:40;;;;;;;;;;;31.30;33.50;;;;;;4345049;33;19974;-42
2021/09/13 14:05:07;;;;;;;;;;;31.20;34.30;;;;;;4345028;33;20033;-41
2021/09/13 14:07:33;;;;;;;;;;;31.10;33.90;;;;;;4344809;33;20371;-42
2021/09/13 14:10:00;;;;;;;;;;;31.00;34.10;;;;;;4344637;33;19977;-41
2021/09/13 14:12:26;;;;;;;;;;;30.90;34.40;;;;;;4344596;33;19978;-42
2021/09/13 14:14:53;;;;;;;;;;;30.80;34.50;;;;;;4344499;33;19977;-40
2021/09/13 14:17:19;;;;;;;;;;;30.80;34.80;;;;;;4344358;33;19979;-40
2021/09/13 14:19:45;;;;;;;;;;;30.60;34.90;;;;;;4345221;33;20111;-40
2021/09/13 14:22:11;;;;;;;;;;;30.40;35.00;;;;;;4344475;33;19970;-40
2021/09/13 14:24:38;;;;;;;;;;;30.40;35.20;;;;;;4344929;33;20038;-40
2021/09/13 14:27:04;;;;;;;;;;;30.20;35.10;;;;;;4344212;33;20002;-42